Time;durP1;ratioP1;P1;durP2;ratioP2;P2;SDS_P1;SDS_P2;PMS_P1;PMS_P2;Temp;Humidity;BMP_temperature;BMP_pressure;BME280_temperature;BME280_humidity;BME280_pressure;Samples;Min_cycle;Max_cycle;Signal;HPM_P1;HPM_P2
2022/12/16 00:01:15;;;;;;;28.40;18.07;;;-5.40;99.90;;;-141.84;73.12;18586.50;5032815;28;20286;-70
2022/12/16 00:03:49;;;;;;;28.67;18.30;;;-5.40;99.90;;;-141.84;73.78;18560.06;5032290;28;20206;-70
2022/12/16 00:06:20;;;;;;;28.03;18.63;;;-5.40;99.90;;;-141.84;74.89;18556.00;5032949;28;20284;-69
2022/12/16 00:08:50;;;;;;;27.93;18.37;;;-5.60;99.90;;;-141.84;73.49;18560.06;5032478;28;20233;-71
2022/12/16 00:11:19;;;;;;;29.10;19.13;;;-5.50;99.90;;;-141.84;72.92;18580.41;5032715;28;20228;-69
2022/12/16 00:13:47;;;;;;;29.43;18.60;;;-5.40;99.90;;;-141.84;72.98;18584.47;5032556;28;20234;-70
2022/12/16 00:16:18;;;;;;;26.97;18.77;;;-5.40;99.90;;;-141.84;72.70;18586.50;5032404;28;20236;-69
2022/12/16 00:18:48;;;;;;;27.70;17.57;;;-5.40;99.90;;;-141.84;73.25;18562.09;5032892;28;20187;-70
2022/12/16 00:21:17;;;;;;;28.40;19.33;;;-5.40;99.90;;;-141.84;73.76;18529.59;5032544;28;20231;-69
2022/12/16 00:23:46;;;;;;;30.57;19.10;;;-5.50;99.90;;;-141.84;73.73;18566.16;5032228;28;20222;-69
2022/12/16 00:26:16;;;;;;;28.53;18.13;;;-5.50;99.90;;;-141.84;74.46;18551.94;5032628;28;20235;-69
2022/12/16 00:28:44;;;;;;;28.83;19.53;;;-5.60;99.90;;;-141.84;74.90;18564.13;5032206;28;20229;-70
2022/12/16 00:31:12;;;;;;;29.83;19.00;;;-5.60;99.90;;;-141.84;74.98;18553.97;5032477;28;20201;-70
2022/12/16 00:33:41;;;;;;;27.50;18.93;;;-5.70;99.90;;;-141.84;74.54;18566.16;5032837;28;20199;-70
2022/12/16 00:36:10;;;;;;;28.57;18.33;;;-5.70;99.90;;;-141.84;73.87;18553.97;5031977;28;20234;-69
2022/12/16 00:38:38;;;;;;;28.10;18.07;;;-5.70;99.90;;;-141.84;73.34;18562.09;5031718;28;20721;-70
2022/12/16 00:41:07;;;;;;;28.97;18.47;;;-5.70;99.90;;;-141.84;73.06;18596.66;5032313;28;20245;-70
2022/12/16 00:43:36;;;;;;;27.83;17.40;;;-5.60;99.90;;;-141.84;72.31;18594.63;5031873;28;20225;-71
2022/12/16 00:46:04;;;;;;;28.07;17.93;;;-5.60;99.90;;;-141.84;72.38;18562.09;5032383;28;20609;-69
2022/12/16 00:48:33;;;;;;;27.47;17.40;;;-5.60;99.90;;;-141.84;72.83;18574.28;5031971;28;20223;-69
2022/12/16 00:51:01;;;;;;;31.67;18.60;;;-5.70;99.90;;;-141.84;72.40;18568.19;5032027;28;20242;-70
2022/12/16 00:53:29;;;;;;;27.53;17.47;;;-5.60;99.90;;;-141.84;73.18;18592.59;5031655;28;20354;-70
2022/12/16 00:56:07;;;;;;;29.50;18.20;;;-5.70;99.90;;;-141.84;73.47;18560.06;5031911;28;20228;-70
2022/12/16 00:58:38;;;;;;;30.27;19.37;;;-5.80;99.90;;;-141.84;73.41;18566.16;5016166;28;20231;-70
2022/12/16 01:01:07;;;;;;;32.03;19.00;;;-5.80;99.90;;;-141.84;73.54;18568.19;5041030;28;20201;-70
2022/12/16 01:03:37;;;;;;;29.43;18.67;;;-5.80;99.90;;;-141.84;73.09;18590.56;5032302;28;20753;-69
2022/12/16 01:06:10;;;;;;;26.53;18.30;;;-5.80;99.90;;;-141.84;73.18;18582.44;5031707;28;20259;-71
2022/12/16 01:08:39;;;;;;;30.77;18.50;;;-5.80;99.90;;;-141.84;73.13;18582.44;5043953;28;20221;-70
2022/12/16 01:11:10;;;;;;;29.33;18.80;;;-5.70;99.90;;;-141.84;73.08;18574.28;5042383;28;20238;-69
2022/12/16 01:13:39;;;;;;;29.83;18.00;;;-5.80;99.90;;;-141.84;73.19;18537.72;5031612;28;20230;-70
2022/12/16 01:16:08;;;;;;;34.57;18.73;;;-5.80;99.90;;;-141.84;73.35;18572.25;5032036;28;20201;-69
2022/12/16 01:18:36;;;;;;;27.73;18.30;;;-5.80;99.90;;;-141.84;73.78;18562.09;5051704;28;20247;-69
2022/12/16 01:21:06;;;;;;;30.13;18.67;;;-5.90;99.90;;;-141.84;74.31;18572.25;5034782;28;20310;-70
2022/12/16 01:23:35;;;;;;;32.40;19.30;;;-6.00;99.90;;;-141.84;75.26;18545.84;5030880;28;20806;-70
2022/12/16 01:26:04;;;;;;;31.93;19.67;;;-6.10;99.90;;;-141.84;76.14;18558.03;5031244;28;20714;-69
2022/12/16 01:28:33;;;;;;;33.73;19.60;;;-6.20;99.90;;;-141.84;76.83;18566.16;5034738;28;20239;-69
2022/12/16 01:31:02;;;;;;;32.07;19.23;;;-6.30;99.90;;;-141.84;77.44;18558.03;5051328;28;20212;-70
2022/12/16 01:33:32;;;;;;;33.33;20.43;;;-6.40;99.90;;;-141.84;77.76;18553.97;5031299;28;20256;-70
2022/12/16 01:36:03;;;;;;;30.93;19.97;;;-6.50;99.90;;;-141.84;77.99;18586.50;5046765;28;20256;-69
2022/12/16 01:38:32;;;;;;;32.60;19.73;;;-6.50;99.90;;;-141.84;77.97;18553.97;5039045;28;20233;-69
2022/12/16 01:41:00;;;;;;;34.80;19.20;;;-6.60;99.90;;;-141.84;78.34;18566.16;5031133;28;20232;-70
2022/12/16 01:43:33;;;;;;;34.20;20.70;;;-6.60;99.90;;;-141.84;78.64;18549.91;5030794;28;20674;-69
2022/12/16 01:46:14;;;;;;;37.10;20.10;;;-6.60;99.90;;;-141.84;78.80;18537.72;5031674;28;20244;-70
2022/12/16 01:48:48;;;;;;;34.77;20.93;;;-6.60;99.90;;;-141.84;78.17;18549.91;5030932;28;20586;-70
2022/12/16 01:51:24;;;;;;;34.57;20.13;;;-6.50;99.90;;;-141.84;77.63;18564.13;5031002;28;20244;-70
2022/12/16 01:54:00;;;;;;;35.03;21.00;;;-6.40;99.90;;;-141.84;77.92;18549.91;5030909;28;20603;-69
2022/12/16 01:56:34;;;;;;;35.70;21.40;;;-6.30;99.90;;;-141.84;78.36;18545.84;5030887;28;20217;-71
2022/12/16 01:59:03;;;;;;;35.73;21.93;;;-6.50;99.90;;;-141.84;78.56;18564.13;5030822;28;20280;-69
2022/12/16 02:01:32;;;;;;;34.30;20.87;;;-6.50;99.90;;;-141.84;78.22;18521.47;5031111;28;20232;-69
2022/12/16 02:04:04;;;;;;;35.67;21.63;;;-6.50;99.90;;;-141.84;78.08;18556.00;5031770;28;20268;-69
2022/12/16 02:06:33;;;;;;;40.37;21.53;;;-6.50;99.90;;;-141.84;77.81;18549.91;5032116;28;20218;-70
2022/12/16 02:09:06;;;;;;;34.70;20.30;;;-6.50;99.90;;;-141.84;78.04;18568.19;5031002;28;20230;-70
2022/12/16 02:12:12;;;;;;;38.43;20.77;;;-6.50;99.90;;;-141.84;78.34;18547.88;5031012;28;20248;-69
2022/12/16 02:15:04;;;;;;;40.67;23.37;;;-6.50;99.90;;;-141.84;78.65;18553.97;5032075;28;20705;-70
2022/12/16 02:17:47;;;;;;;37.47;21.27;;;-6.50;99.90;;;-141.84;78.92;18553.97;5031703;28;20225;-69
2022/12/16 02:21:16;;;;;;;38.60;22.57;;;-6.50;99.90;;;-141.84;78.58;18568.19;5032351;28;20228;-70
2022/12/16 02:24:37;;;;;;;38.47;21.43;;;-6.40;99.90;;;-141.84;77.55;18553.97;5033168;28;20279;-70
2022/12/16 02:27:42;;;;;;;37.30;21.43;;;-6.20;99.90;;;-141.84;75.92;18558.03;5035921;28;20284;-69
2022/12/16 02:31:00;;;;;;;38.50;20.27;;;-6.20;99.90;;;-141.84;75.72;18525.53;5037467;28;20279;-71
2022/12/16 02:33:47;;;;;;;36.90;21.37;;;-6.20;99.90;;;-141.84;75.91;18562.09;5037901;28;20241;-71
2022/12/16 02:36:40;;;;;;;38.30;21.73;;;-6.20;99.90;;;-141.84;76.40;18541.78;5036760;28;20696;-69
2022/12/16 02:39:15;;;;;;;33.83;20.33;;;-6.20;99.90;;;-141.84;76.21;18562.09;5036804;28;20229;-69
2022/12/16 02:41:54;;;;;;;39.03;21.80;;;-6.20;99.90;;;-141.84;75.72;18564.13;5034526;28;20225;-70
2022/12/16 02:44:35;;;;;;;36.63;20.57;;;-6.20;99.90;;;-141.84;74.88;18576.31;5034298;28;20234;-69
2022/12/16 02:47:05;;;;;;;35.30;21.57;;;-6.20;99.90;;;-141.84;74.17;18551.94;5034521;28;20222;-69
2022/12/16 02:49:49;;;;;;;33.67;19.87;;;-6.30;99.90;;;-141.84;73.73;18537.72;5034414;28;20240;-71
2022/12/16 02:52:22;;;;;;;37.57;21.37;;;-6.30;99.90;;;-141.84;73.68;18566.16;5034478;28;20191;-69
2022/12/16 02:54:55;;;;;;;37.83;20.83;;;-6.40;99.90;;;-141.84;73.73;18598.69;5034841;28;20754;-69
2022/12/16 02:57:59;;;;;;;32.57;19.93;;;-6.40;99.90;;;-141.84;74.61;18600.72;5033974;28;20699;-70
2022/12/16 03:00:40;;;;;;;32.47;19.20;;;-6.60;99.90;;;-141.84;74.07;18562.09;5033970;28;20648;-69
2022/12/16 03:03:20;;;;;;;33.77;19.73;;;-6.60;99.90;;;-141.84;74.98;18592.59;5034127;28;20240;-69
2022/12/16 03:05:51;;;;;;;36.90;19.73;;;-6.80;99.90;;;-141.84;75.58;18633.22;5034026;28;20229;-69
2022/12/16 03:08:26;;;;;;;32.83;19.70;;;-7.00;99.90;;;-141.84;76.63;18584.47;5034131;28;20241;-70
2022/12/16 03:11:01;;;;;;;36.73;20.57;;;-7.00;99.90;;;-141.84;75.52;18558.03;5034007;28;20226;-70
2022/12/16 03:13:37;;;;;;;34.30;20.07;;;-6.90;99.90;;;-141.84;75.54;18574.28;5034218;28;20228;-69
2022/12/16 03:16:10;;;;;;;37.93;20.73;;;-6.90;99.90;;;-141.84;75.54;18586.50;5033985;28;20212;-68
2022/12/16 03:18:46;;;;;;;33.07;19.97;;;-6.90;99.90;;;-141.84;75.20;18588.53;5034315;28;20715;-70
2022/12/16 03:21:15;;;;;;;35.83;20.13;;;-6.90;99.90;;;-141.84;74.87;18553.97;5033600;28;20254;-68
2022/12/16 03:23:52;;;;;;;37.67;21.27;;;-6.80;99.90;;;-141.84;75.35;18574.28;5033672;28;20230;-70
2022/12/16 03:26:29;;;;;;;36.80;19.97;;;-6.80;99.90;;;-141.84;75.82;18553.97;5033278;28;20240;-69
2022/12/16 03:29:05;;;;;;;34.27;20.67;;;-6.70;99.90;;;-141.84;76.07;18547.88;5033768;28;20607;-68
2022/12/16 03:31:43;;;;;;;34.53;20.07;;;-6.80;99.90;;;-141.84;76.87;18547.88;5033651;28;20228;-70
2022/12/16 03:34:25;;;;;;;38.03;20.60;;;-6.80;99.90;;;-141.84;77.27;18580.41;5033471;28;20587;-69
2022/12/16 03:37:00;;;;;;;39.07;21.47;;;-6.80;99.90;;;-141.84;77.04;18594.63;5033183;28;20186;-71
2022/12/16 03:39:31;;;;;;;39.20;21.87;;;-6.70;99.90;;;-141.84;77.25;18584.47;5033002;28;20653;-69
2022/12/16 03:42:01;;;;;;;35.00;20.93;;;-6.70;99.90;;;-141.84;78.09;18547.88;5033294;28;20721;-69
2022/12/16 03:44:31;;;;;;;38.73;22.07;;;-6.70;99.90;;;-141.84;77.53;18533.66;5033283;28;20592;-70
2022/12/16 03:46:59;;;;;;;37.17;21.20;;;-6.60;99.90;;;-141.84;77.59;18553.97;5033834;28;20225;-71
2022/12/16 03:49:29;;;;;;;36.00;19.73;;;-6.70;99.90;;;-141.84;78.43;18564.13;5033254;28;20232;-70
2022/12/16 03:51:57;;;;;;;35.70;20.90;;;-6.80;99.90;;;-141.84;78.99;18529.59;5033814;28;20240;-69
2022/12/16 03:54:25;;;;;;;38.90;21.33;;;-6.80;99.90;;;-141.84;79.40;18549.91;5032948;28;20233;-69
2022/12/16 03:56:53;;;;;;;34.27;21.00;;;-6.80;99.90;;;-141.84;79.47;18566.16;5032878;28;20233;-70
2022/12/16 03:59:21;;;;;;;34.73;20.47;;;-6.90;99.90;;;-141.84;79.93;18543.81;5032908;28;20250;-69
2022/12/16 04:01:50;;;;;;;37.57;22.60;;;-6.90;99.90;;;-141.84;79.47;18535.69;5032864;28;20265;-69
2022/12/16 04:04:18;;;;;;;40.23;22.27;;;-6.80;99.90;;;-141.84;78.75;18560.06;5033228;28;20210;-70
2022/12/16 04:07:19;;;;;;;38.20;22.17;;;-6.60;99.90;;;-141.84;78.65;18543.81;5033433;28;20206;-69
2022/12/16 04:09:36;;;;;;;38.70;21.83;;;-6.70;99.90;;;-141.84;78.48;18566.16;5032752;28;20218;-70
2022/12/16 04:26:05;;;;;;;39.27;22.67;;;-6.50;99.90;;;-141.84;78.08;18509.28;5032809;28;20233;-70
2022/12/16 04:28:33;;;;;;;37.77;21.73;;;-6.40;99.90;;;-141.84;77.23;18568.19;5032334;28;20225;-69
2022/12/16 04:31:02;;;;;;;35.53;21.77;;;-6.30;99.90;;;-141.84;77.32;18549.91;5032785;28;20202;-70
